Time;durP1;ratioP1;P1;durP2;ratioP2;P2;SDS_P1;SDS_P2;PMS_P1;PMS_P2;Temp;Humidity;BMP_temperature;BMP_pressure;BME280_temperature;BME280_humidity;BME280_pressure;Samples;Min_cycle;Max_cycle;Signal;HPM_P1;HPM_P2
2021/05/15 00:01:35;;;;;;;50.88;21.10;;;;;;;5.73;90.30;100137.72;5052623;28;20056;-80
2021/05/15 00:04:02;;;;;;;59.20;22.90;;;;;;;5.68;91.10;100140.38;5070667;28;20049;-80
2021/05/15 00:06:29;;;;;;;57.55;21.95;;;;;;;5.71;90.47;100142.56;5058885;28;20049;-81
2021/05/15 00:08:57;;;;;;;55.53;21.42;;;;;;;5.67;90.75;100137.94;5052948;28;20052;-81
2021/05/15 00:11:24;;;;;;;57.53;21.88;;;;;;;5.60;90.75;100147.06;5062968;28;20692;-82
2021/05/15 00:13:50;;;;;;;56.08;20.83;;;;;;;5.56;89.95;100132.47;5065109;28;20409;-81
2021/05/15 00:16:19;;;;;;;56.97;22.67;;;;;;;5.49;90.28;100129.19;5058690;28;20507;-82
2021/05/15 00:18:46;;;;;;;59.28;21.35;;;;;;;5.51;90.56;100132.44;5061255;28;20401;-81
2021/05/15 00:21:13;;;;;;;53.17;21.80;;;;;;;5.37;90.83;100126.69;5061090;28;20040;-80
2021/05/15 00:23:40;;;;;;;48.97;21.47;;;;;;;5.45;90.80;100138.88;5054811;28;20072;-81
2021/05/15 00:26:06;;;;;;;65.13;22.13;;;;;;;5.42;90.76;100134.00;5063339;28;20056;-81
2021/05/15 00:28:33;;;;;;;54.10;21.75;;;;;;;5.44;90.73;100138.06;5060640;28;20056;-81
2021/05/15 00:31:00;;;;;;;57.75;23.42;;;;;;;5.46;90.49;100137.81;5058344;28;20048;-81
2021/05/15 00:33:27;;;;;;;68.88;24.88;;;;;;;5.40;90.91;100128.88;5069068;28;20553;-81
2021/05/15 00:35:54;;;;;;;65.80;23.15;;;;;;;5.41;91.53;100135.06;5072201;28;20053;-81
2021/05/15 00:38:20;;;;;;;72.15;24.95;;;;;;;5.39;91.27;100129.13;5051183;28;20061;-81
2021/05/15 00:40:47;;;;;;;63.53;25.27;;;;;;;5.51;90.74;100139.72;5068477;28;20055;-81
2021/05/15 00:43:14;;;;;;;64.72;23.80;;;;;;;5.48;90.27;100134.84;5068416;28;20422;-81
2021/05/15 00:45:41;;;;;;;59.60;23.02;;;;;;;5.50;91.39;100136.22;5052130;28;20049;-83
2021/05/15 00:48:08;;;;;;;68.93;23.60;;;;;;;5.43;90.49;100133.72;5072419;28;20489;-81
2021/05/15 00:50:35;;;;;;;60.40;22.73;;;;;;;5.45;90.98;100125.38;5054850;28;20083;-83
2021/05/15 00:53:03;;;;;;;58.47;21.52;;;;;;;5.41;90.46;100125.09;5053115;28;20048;-81
2021/05/15 00:55:31;;;;;;;;;;;;;;;5.38;91.01;100127.50;5065158;28;20052;-81
2021/05/15 00:57:57;;;;;;;;;;;;;;;5.36;90.45;100130.44;5063145;28;19935;-81
2021/05/15 01:00:24;;;;;;;57.38;20.23;;;;;;;5.32;91.50;100129.34;5064411;28;19924;-83
2021/05/15 01:02:53;;;;;;;61.38;22.55;;;;;;;5.27;91.36;100126.59;5053191;28;20060;-83
2021/05/15 01:05:20;;;;;;;57.40;22.73;;;;;;;5.26;90.61;100123.09;5063803;28;20476;-83
2021/05/15 01:07:49;;;;;;;57.65;22.60;;;;;;;5.27;91.05;100121.19;5067494;28;20047;-82
2021/05/15 01:10:17;;;;;;;71.43;25.27;;;;;;;5.19;91.39;100130.59;5057292;28;20049;-82
2021/05/15 01:12:44;;;;;;;;;;;;;;;5.25;91.00;100129.56;5075576;28;20068;-81
2021/05/15 01:15:12;;;;;;;63.65;22.38;;;;;;;5.19;91.54;100129.75;5078670;28;19924;-82
2021/05/15 01:17:39;;;;;;;82.65;24.35;;;;;;;5.18;92.18;100125.44;5054899;28;20436;-82
2021/05/15 01:20:07;;;;;;;82.05;25.15;;;;;;;5.25;91.99;100132.25;5054045;28;20044;-82
2021/05/15 01:22:34;;;;;;;78.20;25.80;;;;;;;5.36;92.15;100130.44;5072359;28;20400;-82
2021/05/15 01:25:01;;;;;;;74.55;25.20;;;;;;;5.47;91.47;100141.31;5077506;28;20056;-82
2021/05/15 01:27:27;;;;;;;63.78;22.65;;;;;;;5.60;91.51;100133.56;5081936;28;20053;-82
2021/05/15 01:29:54;;;;;;;61.90;24.58;;;;;;;5.55;90.51;100133.56;5057236;28;20058;-82
2021/05/15 01:32:21;;;;;;;68.60;23.88;;;;;;;5.62;91.55;100141.41;5077183;28;20067;-82
2021/05/15 01:34:47;;;;;;;68.50;23.73;;;;;;;5.63;90.61;100129.53;5055783;28;21330;-82
2021/05/15 01:37:14;;;;;;;59.13;22.60;;;;;;;5.67;90.94;100127.94;5057611;28;20063;-82
2021/05/15 01:39:41;;;;;;;66.82;23.38;;;;;;;5.62;91.25;100131.44;5049492;28;20060;-82
2021/05/15 01:42:08;;;;;;;57.85;22.17;;;;;;;5.71;90.25;100133.66;5075860;28;20050;-83
2021/05/15 01:44:35;;;;;;;57.53;21.17;;;;;;;5.72;90.51;100128.00;5065322;28;20048;-82
2021/05/15 01:47:01;;;;;;;59.63;22.05;;;;;;;5.76;90.72;100122.91;5074849;28;20053;-82
2021/05/15 01:49:28;;;;;;;57.20;22.60;;;;;;;5.88;90.58;100120.81;5056635;28;20072;-83
2021/05/15 01:51:55;;;;;;;66.57;21.92;;;;;;;5.81;90.14;100119.41;5057511;28;20051;-82
2021/05/15 01:54:22;;;;;;;59.70;20.98;;;;;;;5.86;90.30;100122.94;5051788;28;20052;-82
2021/05/15 01:56:49;;;;;;;64.50;22.30;;;;;;;5.84;90.53;100125.09;5074967;28;20056;-82
2021/05/15 01:59:16;;;;;;;57.63;20.85;;;;;;;5.88;90.37;100119.97;5056796;28;20052;-82
2021/05/15 02:01:42;;;;;;;61.55;21.85;;;;;;;5.88;91.46;100118.09;5059883;28;20044;-82
2021/05/15 02:04:09;;;;;;;55.85;21.20;;;;;;;5.95;89.68;100110.56;5055160;28;20429;-83
2021/05/15 02:06:36;;;;;;;65.07;22.10;;;;;;;5.95;90.54;100121.38;5053543;28;20041;-82
2021/05/15 02:09:03;;;;;;;50.75;19.98;;;;;;;6.00;90.36;100117.91;5060403;28;20041;-82
2021/05/15 02:11:30;;;;;;;56.97;21.70;;;;;;;5.96;90.10;100120.28;5055313;28;20052;-82
2021/05/15 02:13:57;;;;;;;53.90;20.65;;;;;;;5.88;90.35;100088.38;5055396;28;20044;-82
2021/05/15 02:16:24;;;;;;;62.00;22.13;;;;;;;5.98;90.03;100100.31;5065858;28;20699;-82
2021/05/15 02:18:50;;;;;;;51.75;21.35;;;;;;;5.98;90.82;100103.84;5061264;28;20519;-83
2021/05/15 02:21:17;;;;;;;49.58;19.38;;;;;;;6.01;90.98;100102.50;5071006;28;20052;-82
2021/05/15 02:23:46;;;;;;;50.78;20.17;;;;;;;6.03;90.79;100101.16;5057653;28;20045;-82
2021/05/15 02:26:12;;;;;;;56.78;20.58;;;;;;;6.01;91.68;100103.31;5076963;28;20486;-82
2021/05/15 02:28:39;;;;;;;58.80;22.90;;;;;;;6.02;91.22;100099.56;5078021;28;20059;-82
2021/05/15 02:31:08;;;;;;;51.35;22.40;;;;;;;6.06;91.55;100103.34;5055593;28;20049;-83
2021/05/15 02:33:34;;;;;;;59.08;20.60;;;;;;;6.05;91.41;100093.63;5072984;28;20064;-82
2021/05/15 02:36:01;;;;;;;65.78;22.40;;;;;;;6.09;91.93;100096.59;5070487;28;20068;-82
2021/05/15 02:38:28;;;;;;;60.95;23.15;;;;;;;6.05;91.75;100090.09;5057754;28;20053;-83
2021/05/15 02:40:55;;;;;;;67.40;21.85;;;;;;;6.07;91.21;100091.44;5061752;28;20076;-82
2021/05/15 02:43:22;;;;;;;51.25;22.05;;;;;;;6.15;91.08;100092.84;5059382;28;20064;-82
2021/05/15 02:45:48;;;;;;;57.13;21.87;;;;;;;6.09;91.36;100089.31;5078716;28;20530;-82
2021/05/15 02:48:17;;;;;;;62.55;22.75;;;;;;;6.13;91.35;100093.13;5079620;28;20299;-82
2021/05/15 02:50:45;;;;;;;48.97;21.35;;;;;;;6.13;90.85;100093.13;5064606;28;20040;-82
2021/05/15 02:53:12;;;;;;;61.13;21.95;;;;;;;6.18;90.95;100086.09;5059607;28;20044;-82
2021/05/15 02:55:39;;;;;;;65.43;21.15;;;;;;;6.08;91.30;100071.47;5063208;28;20079;-82
2021/05/15 02:58:06;;;;;;;50.35;20.92;;;;;;;6.18;90.99;100078.78;5062890;28;20442;-82
2021/05/15 03:00:33;;;;;;;60.90;22.77;;;;;;;6.17;91.48;100076.38;5065721;28;20040;-82
2021/05/15 03:02:59;;;;;;;65.63;23.30;;;;;;;6.12;90.89;100077.97;5064432;28;20040;-82
2021/05/15 03:05:28;;;;;;;56.00;21.65;;;;;;;6.21;90.91;100078.25;5063977;28;20099;-83
2021/05/15 03:07:55;;;;;;;68.82;24.40;;;;;;;6.20;91.27;100087.47;5059207;28;20049;-82
2021/05/15 03:10:24;;;;;;;57.83;22.27;;;;;;;6.21;91.52;100088.25;5076691;28;20049;-82
2021/05/15 03:12:53;;;;;;;57.40;22.13;;;;;;;6.33;91.28;100080.75;5058442;28;20378;-82
2021/05/15 03:15:20;;;;;;;83.50;24.20;;;;;;;6.20;91.75;100073.97;5059227;28;20049;-83
2021/05/15 03:17:47;;;;;;;;;;;;;;;6.28;91.04;100078.84;5085186;28;20037;-83
2021/05/15 03:20:16;;;;;;;56.83;20.73;;;;;;;6.20;90.88;100067.72;5062166;28;19924;-83
2021/05/15 03:22:44;;;;;;;57.13;22.23;;;;;;;6.25;91.05;100073.94;5090084;28;20052;-83
2021/05/15 03:25:12;;;;;;;60.72;22.90;;;;;;;6.27;91.05;100087.19;5062333;28;20053;-83
2021/05/15 03:27:39;;;;;;;;;;;;;;;6.29;90.85;100083.16;5054501;28;20049;-82
2021/05/15 03:30:08;;;;;;;61.72;22.00;;;;;;;6.22;90.65;100071.78;5062110;28;19924;-82
2021/05/15 03:32:36;;;;;;;67.28;24.27;;;;;;;6.32;91.03;100083.72;5051946;28;20056;-82
2021/05/15 03:35:03;;;;;;;58.08;22.77;;;;;;;6.36;90.22;100082.09;5055347;28;20400;-82
2021/05/15 03:37:30;;;;;;;71.88;25.65;;;;;;;6.33;89.79;100082.63;5063934;28;20052;-82
2021/05/15 03:39:57;;;;;;;71.75;25.20;;;;;;;6.31;90.56;100066.66;5056660;28;20052;-82
2021/05/15 03:42:25;;;;;;;65.55;23.85;;;;;;;6.35;90.38;100072.38;5079125;28;20049;-82
2021/05/15 03:44:52;;;;;;;70.32;24.85;;;;;;;6.39;90.58;100079.66;5076870;28;20048;-82
2021/05/15 03:47:19;;;;;;;70.22;24.50;;;;;;;6.37;91.05;100078.31;5060416;28;20037;-81
2021/05/15 03:49:45;;;;;;;78.15;24.88;;;;;;;6.37;90.27;100081.84;5062635;28;20045;-82
2021/05/15 03:52:12;;;;;;;66.75;25.42;;;;;;;6.35;90.42;100083.97;5081047;28;20123;-82
2021/05/15 03:54:39;;;;;;;73.72;25.15;;;;;;;6.53;89.82;100071.03;5075806;28;20064;-82
2021/05/15 03:57:07;;;;;;;76.28;26.73;;;;;;;6.45;89.45;100078.59;5078680;28;20511;-80
2021/05/15 03:59:33;;;;;;;70.72;25.00;;;;;;;6.50;89.59;100085.91;5084066;28;20052;-81
2021/05/15 04:02:00;;;;;;;66.53;24.10;;;;;;;6.49;89.63;100078.91;5056549;28;20041;-82
2021/05/15 04:04:27;;;;;;;67.53;23.63;;;;;;;6.43;90.21;100075.34;5052984;28;20421;-82
2021/05/15 04:06:54;;;;;;;71.05;24.23;;;;;;;6.36;90.03;100069.38;5076635;28;20045;-82
2021/05/15 04:09:21;;;;;;;64.72;25.20;;;;;;;6.46;90.31;100082.94;5079280;28;20484;-83
2021/05/15 04:11:48;;;;;;;61.13;23.50;;;;;;;6.50;90.96;100071.59;5070326;28;20413;-82
2021/05/15 04:14:30;;;;;;;65.03;23.50;;;;;;;6.52;90.86;100069.41;5057988;28;20044;-82
2021/05/15 04:17:12;;;;;;;58.72;22.00;;;;;;;6.61;90.14;100054.31;5061134;28;20033;-82
2021/05/15 04:19:39;;;;;;;58.22;20.95;;;;;;;6.56;90.77;100063.22;5055922;28;20048;-82
2021/05/15 04:22:06;;;;;;;52.58;22.08;;;;;;;6.58;89.96;100060.25;5054396;28;20044;-81
2021/05/15 04:24:33;;;;;;;55.33;21.80;;;;;;;6.56;89.95;100063.22;5056258;28;20041;-82
2021/05/15 04:27:03;;;;;;;58.75;22.77;;;;;;;6.62;90.34;100064.84;5055117;28;20045;-83
2021/05/15 04:29:31;;;;;;;54.80;22.08;;;;;;;6.61;89.77;100060.50;5054064;28;20060;-82
2021/05/15 04:31:59;;;;;;;62.40;24.10;;;;;;;6.68;90.78;100062.16;5058724;28;20485;-82
2021/05/15 04:34:29;;;;;;;56.33;21.33;;;;;;;6.69;90.75;100061.88;5078040;28;20150;-82
2021/05/15 04:36:57;;;;;;;54.00;21.55;;;;;;;6.69;90.57;100048.38;5063311;28;20056;-82
2021/05/15 04:39:25;;;;;;;52.70;21.13;;;;;;;6.83;90.20;100066.75;5067035;28;20044;-82
2021/05/15 04:41:51;;;;;;;52.88;20.02;;;;;;;6.87;90.01;100067.84;5056076;28;20527;-81
2021/05/15 04:44:18;;;;;;;47.33;20.07;;;;;;;6.85;89.55;100067.28;5065600;28;20040;-82
2021/05/15 04:46:46;;;;;;;50.83;19.98;;;;;;;6.92;90.23;100067.88;5054576;28;20048;-82
2021/05/15 04:49:13;;;;;;;51.58;19.85;;;;;;;6.97;90.23;100063.25;5059244;28;20045;-81
2021/05/15 04:51:40;;;;;;;52.78;21.67;;;;;;;6.97;89.96;100074.06;5056420;28;20413;-81
2021/05/15 04:54:07;;;;;;;;;;;;;;;7.08;90.34;100061.34;5056500;28;20425;-82
2021/05/15 04:56:34;;;;;;;55.75;20.90;;;;;;;7.10;90.43;100058.38;5071040;28;19925;-81
2021/05/15 04:59:00;;;;;;;60.75;22.10;;;;;;;7.18;89.92;100059.72;5074291;28;20063;-81
2021/05/15 05:01:28;;;;;;;48.55;20.55;;;;;;;7.02;89.28;100043.50;5066200;28;20048;-81
2021/05/15 05:03:55;;;;;;;55.78;20.33;;;;;;;7.22;90.13;100066.22;5074895;28;20060;-81
2021/05/15 05:06:22;;;;;;;42.03;19.85;;;;;;;7.12;89.88;100059.72;5062220;28;20071;-82
2021/05/15 05:08:49;;;;;;;52.20;20.02;;;;;;;7.23;90.32;100057.00;5063856;28;20040;-82
2021/05/15 05:11:15;;;;;;;47.63;21.15;;;;;;;7.26;90.08;100056.47;5070539;28;20048;-82
2021/05/15 05:13:43;;;;;;;56.95;21.73;;;;;;;7.23;90.01;100051.59;5060660;28;20052;-81
2021/05/15 05:16:10;;;;;;;;;;;;;;;7.26;90.42;100054.56;5054999;28;20773;-82
2021/05/15 05:18:36;;;;;;;49.50;19.60;;;;;;;7.31;89.69;100051.84;5051684;28;19928;-81
2021/05/15 05:21:04;;;;;;;49.50;21.58;;;;;;;7.39;90.41;100060.47;5050744;28;20056;-80
2021/05/15 05:23:31;;;;;;;50.08;21.02;;;;;;;7.38;89.91;100056.97;5053620;28;20752;-81
2021/05/15 05:25:58;;;;;;;44.50;19.73;;;;;;;7.42;90.14;100054.53;5064386;28;20057;-81
2021/05/15 05:28:31;;;;;;;51.72;20.48;;;;;;;7.37;89.50;100047.22;5049595;28;20056;-80
2021/05/15 05:30:58;;;;;;;43.40;19.52;;;;;;;7.44;90.16;100063.19;5050492;28;20048;-82
2021/05/15 05:33:25;;;;;;;50.88;20.23;;;;;;;7.44;89.29;100060.47;5051126;28;20044;-81
2021/05/15 05:35:52;;;;;;;45.65;18.85;;;;;;;7.47;88.77;100065.34;5054818;28;20053;-80
2021/05/15 05:38:19;;;;;;;50.17;19.77;;;;;;;7.52;88.97;100065.34;5053770;28;20049;-81
2021/05/15 05:40:46;;;;;;;44.35;20.15;;;;;;;7.59;89.02;100060.44;5073638;28;20052;-80
2021/05/15 05:43:13;;;;;;;54.93;20.23;;;;;;;7.56;88.54;100068.31;5052400;28;20056;-81
2021/05/15 05:45:40;;;;;;;44.63;19.52;;;;;;;7.67;88.20;100061.78;5053904;28;20049;-80
2021/05/15 05:48:07;;;;;;;48.13;20.52;;;;;;;7.73;88.77;100055.25;5050154;28;20045;-80
2021/05/15 05:50:34;;;;;;;42.22;19.40;;;;;;;7.67;86.73;100064.50;5068611;28;20060;-80
2021/05/15 05:53:01;;;;;;;48.37;20.63;;;;;;;7.69;89.11;100064.22;5051649;28;20484;-80
2021/05/15 05:55:28;;;;;;;43.47;20.20;;;;;;;7.74;88.01;100059.59;5056261;28;20624;-81
2021/05/15 05:57:55;;;;;;;49.35;21.08;;;;;;;7.79;89.05;100056.88;5072106;28;20049;-81
2021/05/15 06:00:22;;;;;;;48.28;21.65;;;;;;;7.76;87.49;100068.25;5073776;28;20056;-80
2021/05/15 06:02:49;;;;;;;60.45;22.45;;;;;;;7.87;88.34;100055.50;5057983;28;20067;-80
2021/05/15 06:05:16;;;;;;;48.93;21.40;;;;;;;7.98;88.51;100056.25;5057685;28;20787;-80
2021/05/15 06:07:43;;;;;;;55.07;22.33;;;;;;;8.04;88.95;100060.56;5061278;28;20041;-80
2021/05/15 06:10:10;;;;;;;48.80;21.33;;;;;;;7.95;86.36;100068.44;5055883;28;20086;-81
2021/05/15 06:12:38;;;;;;;52.20;19.95;;;;;;;8.03;87.64;100072.50;5052389;28;20048;-80
2021/05/15 06:15:06;;;;;;;49.67;21.38;;;;;;;7.97;87.40;100066.28;5057316;28;21409;-80
2021/05/15 06:17:33;;;;;;;46.53;20.63;;;;;;;8.02;87.45;100073.56;5052655;28;20048;-80
2021/05/15 06:20:00;;;;;;;43.30;20.33;;;;;;;8.08;85.36;100074.34;5059181;28;20049;-80
2021/05/15 06:22:27;;;;;;;36.47;18.65;;;;;;;8.10;82.25;100073.00;5057973;28;20053;-80
2021/05/15 06:24:53;;;;;;;43.00;19.33;;;;;;;8.03;84.27;100079.81;5059459;28;20056;-80
2021/05/15 06:27:20;;;;;;;35.25;18.17;;;;;;;8.00;82.87;100073.84;5052223;28;20082;-80
2021/05/15 06:29:48;;;;;;;36.33;17.33;;;;;;;7.99;82.90;100068.72;5052621;28;20059;-80
2021/05/15 06:32:15;;;;;;;33.15;16.80;;;;;;;8.10;83.51;100067.56;5054845;28;20052;-80
2021/05/15 06:34:41;;;;;;;36.30;17.50;;;;;;;8.04;84.07;100062.44;5053385;28;20514;-80
2021/05/15 06:37:08;;;;;;;37.85;18.10;;;;;;;8.15;83.85;100061.34;5051814;28;20295;-81
2021/05/15 06:39:34;;;;;;;34.50;17.25;;;;;;;8.08;82.15;100071.66;5052821;28;20052;-80
2021/05/15 06:42:03;;;;;;;31.42;15.98;;;;;;;8.08;84.00;100072.47;5052063;28;20048;-81
2021/05/15 06:44:30;;;;;;;43.55;18.50;;;;;;;8.15;85.64;100067.56;5054171;28;20076;-81
2021/05/15 06:46:58;;;;;;;32.33;15.73;;;;;;;8.18;83.54;100071.63;5057694;28;20052;-81
2021/05/15 06:49:25;;;;;;;31.40;15.00;;;;;;;8.34;82.20;100073.16;5053952;28;20305;-80
2021/05/15 06:51:52;;;;;;;37.85;16.98;;;;;;;8.27;85.18;100069.13;5054060;28;20056;-80
2021/05/15 06:54:18;;;;;;;35.47;17.35;;;;;;;8.27;85.28;100071.81;5054715;28;20052;-80
2021/05/15 06:56:45;;;;;;;31.58;15.65;;;;;;;8.33;83.35;100078.84;5058228;28;20052;-81
2021/05/15 06:59:12;;;;;;;32.08;16.08;;;;;;;8.27;81.34;100066.41;5054394;28;20058;-80
2021/05/15 07:01:40;;;;;;;33.88;17.73;;;;;;;8.20;83.25;100072.13;5052653;28;20713;-80
2021/05/15 07:04:08;;;;;;;31.25;16.50;;;;;;;8.28;81.64;100068.03;5057259;28;20048;-80
2021/05/15 07:06:35;;;;;;;31.52;17.00;;;;;;;8.33;83.40;100076.94;5057980;28;20053;-81
2021/05/15 07:09:03;;;;;;;36.50;17.35;;;;;;;8.42;83.98;100073.66;5050880;28;20056;-81
2021/05/15 07:11:29;;;;;;;38.53;17.92;;;;;;;8.57;83.87;100070.06;5052116;28;20057;-81
2021/05/15 07:13:56;;;;;;;28.98;15.77;;;;;;;8.45;81.05;100075.81;5070575;28;20063;-80
2021/05/15 07:16:23;;;;;;;31.17;16.20;;;;;;;8.32;81.58;100075.31;5061350;28;20044;-82
2021/05/15 07:18:50;;;;;;;36.50;15.45;;;;;;;8.43;80.65;100075.28;5055070;28;20044;-80
2021/05/15 07:21:18;;;;;;;40.75;18.42;;;;;;;8.41;85.05;100072.84;5057091;28;20049;-81
2021/05/15 07:23:45;;;;;;;32.83;15.80;;;;;;;8.45;80.46;100073.94;5057196;28;21158;-80
2021/05/15 07:26:12;;;;;;;28.25;14.80;;;;;;;8.57;81.85;100079.00;5057037;28;20072;-81
2021/05/15 07:28:38;;;;;;;33.87;15.60;;;;;;;8.63;83.83;100074.34;5059006;28;20044;-81
2021/05/15 07:31:06;;;;;;;35.53;16.27;;;;;;;8.82;81.50;100063.66;5061760;28;20048;-79
2021/05/15 07:33:33;;;;;;;33.78;15.23;;;;;;;8.78;82.05;100068.00;5052518;28;20480;-82
2021/05/15 07:36:00;;;;;;;31.63;14.85;;;;;;;8.77;78.62;100067.22;5056716;28;20044;-81
2021/05/15 07:38:28;;;;;;;36.30;14.70;;;;;;;8.94;76.62;100064.09;5055456;28;20067;-82
2021/05/15 07:40:55;;;;;;;32.40;14.75;;;;;;;9.00;80.30;100064.84;5059747;28;20049;-82
2021/05/15 07:43:23;;;;;;;30.60;15.30;;;;;;;9.10;82.34;100061.25;5069925;28;20044;-81
2021/05/15 07:45:50;;;;;;;28.65;14.63;;;;;;;9.07;79.57;100059.91;5051299;28;20063;-82
2021/05/15 07:48:17;;;;;;;32.08;15.32;;;;;;;9.00;78.01;100073.00;5052648;28;20041;-82
2021/05/15 07:50:44;;;;;;;32.03;15.18;;;;;;;8.98;81.04;100058.91;5057443;28;20044;-81
2021/05/15 07:53:11;;;;;;;28.15;14.82;;;;;;;8.79;78.31;100067.72;5054637;28;20695;-80
2021/05/15 07:55:38;;;;;;;33.80;15.77;;;;;;;8.94;80.87;100080.38;5072588;27;20067;-81
2021/05/15 07:58:07;;;;;;;31.63;16.55;;;;;;;9.05;81.16;100070.25;5047620;28;20440;-83
2021/05/15 08:00:34;;;;;;;34.05;15.35;;;;;;;9.16;79.87;100068.25;5048860;28;20048;-80
2021/05/15 08:03:01;;;;;;;32.22;15.45;;;;;;;9.29;78.79;100064.06;5057096;28;20420;-83
2021/05/15 08:05:27;;;;;;;30.80;16.17;;;;;;;9.50;78.58;100065.50;5056639;28;20079;-82
2021/05/15 08:07:54;;;;;;;29.02;15.35;;;;;;;9.78;78.63;100063.00;5054359;28;20314;-82
2021/05/15 08:10:21;;;;;;;33.53;16.15;;;;;;;9.94;79.44;100063.63;5053033;28;20059;-82
2021/05/15 08:12:50;;;;;;;30.40;15.73;;;;;;;10.01;77.12;100068.72;5041862;28;20052;-83
2021/05/15 08:15:17;;;;;;;27.90;14.43;;;;;;;9.84;79.63;100061.84;5045530;28;20063;-81
2021/05/15 08:17:50;;;;;;;27.05;15.00;;;;;;;9.66;78.20;100054.44;5051381;28;20043;-81
2021/05/15 08:20:17;;;;;;;31.50;14.48;;;;;;;9.72;76.91;100052.47;5048047;28;20601;-81
2021/05/15 08:22:44;;;;;;;25.92;14.63;;;;;;;10.00;76.33;100062.47;5048486;28;20059;-81
2021/05/15 08:25:12;;;;;;;35.80;16.00;;;;;;;10.35;79.87;100057.69;5050922;28;20059;-83
2021/05/15 08:27:41;;;;;;;34.75;16.83;;;;;;;10.42;78.07;100056.53;5067330;28;20052;-84
2021/05/15 08:30:14;;;;;;;36.97;16.25;;;;;;;10.68;79.09;100056.94;5054208;28;20041;-83
2021/05/15 08:32:41;;;;;;;29.40;15.27;;;;;;;10.95;77.53;100049.97;5049787;28;20059;-83
2021/05/15 08:35:09;;;;;;;32.63;15.73;;;;;;;11.19;74.12;100047.94;5046228;28;20052;-83
2021/05/15 08:37:37;;;;;;;30.85;15.10;;;;;;;11.31;73.25;100035.75;5050149;28;20481;-84
2021/05/15 08:40:07;;;;;;;33.65;16.88;;;;;;;11.00;74.99;100030.84;5046226;28;20049;-83
2021/05/15 08:42:36;;;;;;;30.73;13.75;;;;;;;10.65;73.45;100042.03;5044855;28;20501;-83
2021/05/15 08:45:06;;;;;;;25.88;13.82;;;;;;;10.56;75.12;100035.63;5048430;28;20111;-81
2021/05/15 08:47:36;;;;;;;28.23;14.18;;;;;;;10.53;73.67;100039.72;5049063;28;20049;-81
2021/05/15 08:50:09;;;;;;;26.05;13.77;;;;;;;10.75;72.88;100037.53;5048615;28;20052;-83
2021/05/15 08:52:38;;;;;;;27.08;14.38;;;;;;;10.81;72.86;100037.16;5053445;28;20052;-82
2021/05/15 08:55:07;;;;;;;30.85;14.80;;;;;;;10.88;76.02;100043.03;5050153;28;20065;-82
2021/05/15 08:57:34;;;;;;;30.17;15.18;;;;;;;10.95;75.97;100039.91;5055300;28;20044;-84
2021/05/15 09:00:09;;;;;;;30.33;15.05;;;;;;;11.68;76.05;100042.97;5048167;28;20049;-83
2021/05/15 09:02:38;;;;;;;29.52;13.93;;;;;;;11.97;73.41;100038.31;5044514;28;20060;-81
2021/05/15 09:05:12;;;;;;;32.13;14.63;;;;;;;12.07;76.05;100019.03;5063810;28;20053;-80
2021/05/15 09:07:50;;;;;;;27.55;13.60;;;;;;;12.16;72.08;100038.19;5048515;28;20045;-80
2021/05/15 09:10:26;;;;;;;28.95;14.48;;;;;;;12.12;71.55;100037.19;5047662;28;20057;-82
2021/05/15 09:13:11;;;;;;;34.10;15.77;;;;;;;12.35;73.06;100032.59;5048900;28;20044;-80
2021/05/15 09:15:41;;;;;;;32.33;14.90;;;;;;;12.21;70.76;100017.06;5039951;28;20047;-81
2021/05/15 09:18:16;;;;;;;32.90;16.10;;;;;;;12.19;72.46;100029.38;5031104;28;20597;-83
2021/05/15 09:20:52;;;;;;;30.20;15.48;;;;;;;12.06;74.23;100025.59;5026556;28;20066;-84
2021/05/15 09:23:21;;;;;;;30.65;14.50;;;;;;;12.52;71.42;100015.53;5027347;28;20060;-83
2021/05/15 09:25:59;;;;;;;26.55;13.65;;;;;;;12.49;70.60;100014.25;5029131;28;20041;-82
2021/05/15 09:28:41;;;;;;;38.72;15.93;;;;;;;13.06;73.34;100013.69;5030937;28;20041;-82
2021/05/15 09:31:22;;;;;;;29.73;14.18;;;;;;;13.33;74.10;100014.59;5039270;28;20049;-81
2021/05/15 09:33:58;;;;;;;33.85;15.55;;;;;;;13.39;70.81;100013.34;5026166;28;20048;-83
2021/05/15 09:36:32;;;;;;;32.65;15.70;;;;;;;13.43;71.71;100013.53;5047556;28;20048;-84
2021/05/15 09:39:10;;;;;;;33.67;16.65;;;;;;;13.51;68.01;100017.44;5030249;28;20044;-84
2021/05/15 09:41:45;;;;;;;30.88;15.02;;;;;;;13.32;65.74;100012.19;5028886;28;20784;-82
2021/05/15 09:44:14;;;;;;;31.52;15.27;;;;;;;13.02;69.12;100009.13;5050482;28;20048;-83
2021/05/15 09:46:48;;;;;;;30.98;14.50;;;;;;;12.83;68.52;99984.75;5030675;28;20052;-82
2021/05/15 09:49:24;;;;;;;30.30;14.82;;;;;;;13.18;70.02;100007.63;5026514;28;20806;-84
2021/05/15 09:52:00;;;;;;;28.67;14.50;;;;;;;13.19;65.51;100009.22;5033812;28;21896;-82
2021/05/15 09:54:34;;;;;;;29.92;14.40;;;;;;;12.68;71.11;99994.97;5033694;28;20390;-84
2021/05/15 09:57:09;;;;;;;28.38;13.90;;;;;;;12.74;69.22;99990.19;5039992;28;20496;-82
2021/05/15 09:59:44;;;;;;;31.65;15.27;;;;;;;12.75;64.77;99987.13;5027853;28;20534;-84
2021/05/15 10:02:20;;;;;;;30.75;14.75;;;;;;;12.29;66.86;99993.72;5050114;28;20060;-83
2021/05/15 10:04:54;;;;;;;31.50;15.25;;;;;;;12.15;70.21;99990.19;5027829;28;20052;-83
2021/05/15 10:07:31;;;;;;;33.50;15.07;;;;;;;12.07;72.23;99986.28;5024648;28;20064;-83
2021/05/15 10:09:59;;;;;;;30.83;15.15;;;;;;;12.36;69.60;99982.34;5035545;28;20045;-83
2021/05/15 10:12:35;;;;;;;29.08;14.23;;;;;;;12.56;66.77;99976.41;5031043;28;20055;-85
2021/05/15 10:15:06;;;;;;;32.92;15.40;;;;;;;12.91;69.47;99967.63;5024488;28;20047;-83
2021/05/15 10:17:39;;;;;;;31.20;14.38;;;;;;;13.05;67.98;99973.00;5028426;28;20064;-84
2021/05/15 10:20:10;;;;;;;28.42;14.07;;;;;;;12.97;66.20;99960.91;5029045;28;20063;-82
2021/05/15 10:22:44;;;;;;;29.38;14.40;;;;;;;13.20;67.08;99966.31;5024964;28;20053;-83
2021/05/15 10:25:21;;;;;;;29.92;13.13;;;;;;;13.11;66.86;99969.03;5023349;28;21000;-83
2021/05/15 10:28:02;;;;;;;30.77;14.77;;;;;;;12.96;66.16;99955.78;5032097;28;21046;-82
2021/05/15 10:30:35;;;;;;;32.38;14.85;;;;;;;12.98;68.03;99956.25;5026679;28;20052;-83
2021/05/15 10:33:10;;;;;;;29.48;13.63;;;;;;;13.03;66.15;99942.47;5026968;28;20052;-83
2021/05/15 10:35:44;;;;;;;30.52;13.57;;;;;;;12.98;63.90;99953.53;5022381;28;20047;-84
2021/05/15 10:38:21;;;;;;;28.05;13.05;;;;;;;13.44;69.03;99952.31;5021640;28;20053;-85
2021/05/15 10:40:50;;;;;;;29.55;13.75;;;;;;;13.92;69.32;99948.69;5042200;28;20646;-83
2021/05/15 10:43:30;;;;;;;26.33;13.68;;;;;;;14.16;69.21;99946.63;5024736;28;20071;-83
2021/05/15 10:46:14;;;;;;;25.02;11.65;;;;;;;14.51;69.62;99936.44;5050690;28;20048;-82
2021/05/15 10:48:42;;;;;;;22.58;11.75;;;;;;;14.40;63.91;99922.31;5028166;28;20068;-82
2021/05/15 10:51:30;;;;;;;24.90;11.60;;;;;;;14.23;63.29;99927.78;5030149;28;20911;-83
2021/05/15 10:54:05;;;;;;;22.83;13.20;;;;;;;14.37;65.81;99925.66;5029123;28;20048;-83
2021/05/15 10:56:33;;;;;;;26.50;12.90;;;;;;;14.34;66.48;99911.84;5024158;28;20056;-83
2021/05/15 10:59:04;;;;;;;21.95;11.13;;;;;;;14.54;63.37;99908.44;5031245;28;20978;-84
2021/05/15 11:01:48;;;;;;;22.08;12.23;;;;;;;14.24;65.22;99911.03;5026109;28;20064;-84
2021/05/15 11:04:25;;;;;;;26.33;12.93;;;;;;;14.28;62.71;99903.00;5026142;28;20079;-83
2021/05/15 11:07:08;;;;;;;25.80;12.65;;;;;;;13.98;60.67;99902.06;5027876;28;21151;-84
2021/05/15 11:09:56;;;;;;;27.20;13.35;;;;;;;13.66;66.73;99895.88;5025748;28;20775;-84
2021/05/15 11:12:30;;;;;;;27.27;13.68;;;;;;;13.59;64.53;99899.91;5031760;28;20049;-83
2021/05/15 11:15:06;;;;;;;24.00;13.07;;;;;;;13.27;69.90;99899.19;5031642;28;21950;-84
2021/05/15 11:17:41;;;;;;;27.10;13.67;;;;;;;13.35;68.98;99888.56;5026954;28;20066;-83
2021/05/15 11:20:15;;;;;;;23.13;12.10;;;;;;;13.31;66.97;99874.72;5041892;28;20059;-85
2021/05/15 11:22:51;;;;;;;27.02;12.77;;;;;;;13.59;68.58;99883.50;5049231;28;20388;-83
2021/05/15 11:25:26;;;;;;;25.25;12.93;;;;;;;13.94;67.29;99880.00;5045875;28;20055;-84
2021/05/15 11:28:01;;;;;;;28.98;13.57;;;;;;;14.14;66.62;99867.59;5027100;28;20048;-83